Accueil
METAR-TAF:

METAR-TAF

Aéroports :

Kasumigaura, Japon

latitude: 36-02N, longitude: 140-12E, altitude: 26 m

Observation

Le bulletin a été fait il y a 25 heures et 4 minutes, à 06:44 UTC
Vent 6 kt de sud-ouest, variant entre sud et ouest/nord-ouest
Température 29°C
Humidité 58%
Pression 1004 hPa
Visibilité 10 km ou plus
Quelques nuages à une hauteur de 3000 ft
Nuages fragmentés à une hauteur de 25000 ft

METAR: RJAK 240644Z 23006KT 180V290 9999 FEW030 BKN250 29/20 Q1004 RMK 1CU030 7CI250 A2966

Heure: 16:48 (07:48 UTC)


TAF: absent

Observations et prévisions météorologiques de plus de 4000 aéroports (messages METAR et TAF).

Les stations disponibles sont représentées par des disques jaunes et rouges sur la carte.

Passer la souris dessus pour voir le nom de la station.

Cliquer dessus pour voir les observations et prévisions météorologiques.

Pour changer de carte: cliquez sur les boutons verts avec une croix noire pour zoomer, sur le bouton vert avec un tiret pour effectuer un zoom arrière, ou sur les flèches vertes pour les cartes adjacentes.


METAR-TAF: